createdAt,value
2023-03-23T15:58:18.131Z,99203.84
2023-03-23T16:00:49.683Z,99195.44
2023-03-23T16:03:48.615Z,99194.25
2023-03-23T16:06:25.427Z,99200.53
2023-03-23T16:08:57.585Z,99204.06
2023-03-23T16:11:28.306Z,99203.84
2023-03-23T16:13:56.832Z,99200.84
2023-03-23T16:16:40.407Z,99200.72
2023-03-23T16:19:11.982Z,99201.34
2023-03-23T16:21:41.460Z,99207.84
2023-03-23T16:24:10.208Z,99207.41
2023-03-23T16:26:37.959Z,99202.47
2023-03-23T16:29:24.420Z,99204.72
2023-03-23T16:32:01.785Z,99204.16
2023-03-23T16:34:33.349Z,99203.81
2023-03-23T16:37:00.850Z,99206.06
2023-03-23T16:39:28.757Z,99207.84
2023-03-23T16:41:56.124Z,99209.00
2023-03-23T16:44:23.494Z,99205.69
2023-03-23T16:46:50.922Z,99207.03
2023-03-23T16:49:18.351Z,99205.84
2023-03-23T16:51:45.686Z,99205.75
2023-03-23T16:54:13.182Z,99203.19
2023-03-23T16:56:41.136Z,99205.06
2023-03-23T16:59:08.483Z,99195.72
2023-03-23T17:01:35.880Z,99203.78
2023-03-23T17:04:03.230Z,99204.16
2023-03-23T17:06:30.765Z,99209.19
2023-03-23T17:08:58.051Z,99211.31
2023-03-23T17:11:25.184Z,99208.19
2023-03-23T17:13:52.418Z,99212.63
2023-03-23T17:16:19.714Z,99208.47
2023-03-23T17:18:47.230Z,99208.56
2023-03-23T17:21:14.383Z,99209.69
2023-03-23T17:23:41.954Z,99209.13
2023-03-23T17:26:09.183Z,99208.56
2023-03-23T17:28:36.579Z,99210.00
2023-03-23T17:31:03.926Z,99206.22
2023-03-23T17:33:31.206Z,99210.00
2023-03-23T17:35:58.405Z,99212.97
2023-03-23T17:38:25.774Z,99207.75
2023-03-23T17:40:59.975Z,99216.81
2023-03-23T17:43:27.666Z,99222.03
2023-03-23T17:45:54.583Z,99215.97
2023-03-23T17:48:23.410Z,99211.50
2023-03-23T17:50:57.877Z,99208.84
2023-03-23T17:53:26.824Z,99200.88
2023-03-23T17:55:54.192Z,99205.16
2023-03-23T17:58:21.576Z,99205.16
2023-03-23T18:00:48.716Z,99205.91
2023-03-23T18:03:16.227Z,99213.53
2023-03-23T18:05:44.237Z,99215.22
2023-03-23T18:08:12.321Z,99223.88
2023-03-23T18:10:41.026Z,99218.66
2023-03-23T18:13:09.048Z,99214.00
2023-03-23T18:15:37.397Z,99212.38
2023-03-23T18:18:06.153Z,99210.59
2023-03-23T18:20:34.155Z,99208.50
2023-03-23T18:23:01.420Z,99208.88
2023-03-23T18:25:28.663Z,99206.22
2023-03-23T18:27:56.717Z,99207.16
2023-03-23T18:30:32.811Z,99198.78
2023-03-23T18:33:00.251Z,99193.59
2023-03-23T18:35:28.251Z,99189.16
2023-03-23T18:37:56.014Z,99187.53
2023-03-23T18:40:23.254Z,99185.72
2023-03-23T18:42:50.579Z,99184.03
2023-03-23T18:45:17.878Z,99188.66
2023-03-23T18:47:45.331Z,99200.78
2023-03-23T18:50:12.830Z,99190.94
2023-03-23T18:52:40.635Z,99191.09
2023-03-23T18:55:08.393Z,99191.19
2023-03-23T18:57:35.856Z,99191.38
2023-03-23T19:00:07.015Z,99200.50
2023-03-23T19:02:35.662Z,99193.38
2023-03-23T19:05:03.021Z,99195.66
2023-03-23T19:07:31.335Z,99198.69
2023-03-23T19:09:58.756Z,99201.53
2023-03-23T19:12:26.389Z,99198.41
2023-03-23T19:14:54.068Z,99194.44
2023-03-23T19:17:21.180Z,99195.63
2023-03-23T19:19:48.906Z,99187.28
2023-03-23T19:22:16.146Z,99192.69
2023-03-23T19:24:43.403Z,99191.06
2023-03-23T19:27:11.062Z,99188.41
2023-03-23T19:29:38.468Z,99193.53
2023-03-23T19:32:06.674Z,99197.06
2023-03-23T19:34:34.191Z,99189.75
2023-03-23T19:37:06.026Z,99197.25
2023-03-23T19:39:35.085Z,99203.13
2023-03-23T19:42:04.352Z,99195.91
2023-03-23T19:44:32.356Z,99199.88
2023-03-23T19:47:02.924Z,99199.72
2023-03-23T19:49:30.599Z,99194.22
2023-03-23T19:52:09.079Z,99191.84
2023-03-23T19:54:40.914Z,99196.66
2023-03-23T19:57:10.253Z,99200.44
2023-03-23T19:59:39.330Z,99200.88
2023-03-23T20:02:07.404Z,99197.78
2023-03-23T20:04:35.721Z,99191.31
2023-03-23T20:07:07.211Z,99195.25
2023-03-23T20:09:35.873Z,99195.78
2023-03-23T20:12:04.971Z,99183.25
2023-03-23T20:14:33.232Z,99189.31
2023-03-23T20:17:01.136Z,99191.66
2023-03-23T20:19:28.796Z,99188.56
2023-03-23T20:21:56.431Z,99188.16
2023-03-23T20:24:23.840Z,99179.78
2023-03-23T20:26:51.525Z,99181.88
2023-03-23T20:29:18.600Z,99181.44
2023-03-23T20:31:47.335Z,99172.06
2023-03-23T20:34:29.134Z,99170.50
2023-03-23T20:36:58.530Z,99171.00
2023-03-23T20:39:29.467Z,99167.66
2023-03-23T20:42:02.128Z,99167.66
2023-03-23T20:44:31.501Z,99171.06
2023-03-23T20:46:59.642Z,99168.72
2023-03-23T20:49:27.883Z,99167.91
2023-03-23T20:51:55.085Z,99164.41
2023-03-23T20:54:23.007Z,99163.50
2023-03-23T20:56:50.858Z,99171.28
2023-03-23T20:59:20.213Z,99165.03
2023-03-23T21:01:50.807Z,99166.56
2023-03-23T21:04:20.787Z,99167.41
2023-03-23T21:06:49.330Z,99173.56
2023-03-23T21:09:17.836Z,99175.53
2023-03-23T21:11:46.532Z,99175.69
2023-03-23T21:14:14.093Z,99169.72
2023-03-23T21:16:42.518Z,99168.06
2023-03-23T21:19:10.697Z,99177.06
2023-03-23T21:21:56.797Z,99168.50
2023-03-23T21:24:29.546Z,99164.38
2023-03-23T21:27:02.275Z,99172.63
2023-03-23T21:29:31.165Z,99165.94
2023-03-23T21:34:29.394Z,99169.59
2023-03-23T21:36:56.775Z,99161.22
2023-03-23T21:39:24.520Z,99171.78
2023-03-23T21:41:52.146Z,99174.66
2023-03-23T21:44:26.243Z,99175.78
2023-03-23T21:46:54.712Z,99167.13
2023-03-23T21:49:22.696Z,99172.50
2023-03-23T21:51:50.433Z,99167.38
2023-03-23T21:54:17.831Z,99159.84
2023-03-23T21:56:45.134Z,99156.47
2023-03-23T21:59:12.475Z,99162.63
2023-03-23T22:01:40.661Z,99161.53
2023-03-23T22:04:07.923Z,99168.47
2023-03-23T22:06:35.074Z,99169.75
2023-03-23T22:09:05.652Z,99160.91
2023-03-23T22:11:33.175Z,99163.94
2023-03-23T22:14:01.443Z,99172.56
2023-03-23T22:16:29.653Z,99173.13
2023-03-23T22:19:00.345Z,99173.59
2023-03-23T22:21:29.190Z,99177.75
2023-03-23T22:23:59.994Z,99180.31
2023-03-23T22:26:29.746Z,99175.03
2023-03-23T22:28:58.856Z,99177.69
2023-03-23T22:31:30.585Z,99180.56
2023-03-23T22:33:58.243Z,99182.59
2023-03-23T22:36:31.387Z,99178.06
2023-03-23T22:38:58.746Z,99176.16
2023-03-23T22:41:32.702Z,99168.28
2023-03-23T22:44:01.057Z,99168.69
2023-03-23T22:46:28.887Z,99164.69
2023-03-23T22:48:56.308Z,99159.72
2023-03-23T22:51:24.907Z,99149.53
2023-03-23T22:53:52.702Z,99152.94
2023-03-23T22:56:20.356Z,99153.63
2023-03-23T22:58:47.733Z,99151.63
2023-03-23T23:01:20.180Z,99153.44
2023-03-23T23:03:48.368Z,99150.78
2023-03-23T23:06:17.164Z,99155.75
2023-03-23T23:08:45.939Z,99153.19
2023-03-23T23:11:17.266Z,99151.38
2023-03-23T23:13:45.784Z,99149.50
2023-03-23T23:16:14.277Z,99151.16
2023-03-23T23:18:42.721Z,99158.25
2023-03-23T23:21:14.803Z,99150.91
2023-03-23T23:23:42.786Z,99154.72
2023-03-23T23:26:10.221Z,99157.38
2023-03-23T23:28:37.807Z,99154.78
2023-03-23T23:31:06.807Z,99159.25
2023-03-23T23:33:33.945Z,99151.53
2023-03-23T23:36:01.927Z,99143.75
2023-03-23T23:38:29.867Z,99143.75
2023-03-23T23:40:57.854Z,99135.97
2023-03-23T23:43:25.009Z,99132.47
2023-03-23T23:45:53.063Z,99121.97
2023-03-23T23:48:20.312Z,99125.28
2023-03-23T23:50:50.861Z,99119.09
2023-03-23T23:53:23.209Z,99122.50
2023-03-23T23:55:50.587Z,99119.78
2023-03-23T23:58:22.043Z,99120.59
